sensor_id;sensor_type;location;lat;lon;timestamp;pressure;altitude;pressure_sealevel;temperature;humidity
31775;BME280;66189;49.000;11.640;2023-05-22T00:00:49;95674.34;;;16.12;61.94
31775;BME280;66189;49.000;11.640;2023-05-22T00:02:51;95669.72;;;16.09;61.81
31775;BME280;66189;49.000;11.640;2023-05-22T00:04:52;95673.28;;;16.02;62.07
31775;BME280;66189;49.000;11.640;2023-05-22T00:06:53;95666.25;;;16.05;62.06
31775;BME280;66189;49.000;11.640;2023-05-22T00:08:54;95663.94;;;16.07;62.14
31775;BME280;66189;49.000;11.640;2023-05-22T00:10:55;95663.19;;;16.03;62.08
31775;BME280;66189;49.000;11.640;2023-05-22T00:12:55;95668.66;;;15.95;61.80
31775;BME280;66189;49.000;11.640;2023-05-22T00:14:56;95665.63;;;15.90;62.52
31775;BME280;66189;49.000;11.640;2023-05-22T00:16:56;95656.69;;;15.93;62.05
31775;BME280;66189;49.000;11.640;2023-05-22T00:18:57;95660.91;;;15.97;61.79
31775;BME280;66189;49.000;11.640;2023-05-22T00:20:59;95664.06;;;15.89;62.42
31775;BME280;66189;49.000;11.640;2023-05-22T00:22:59;95660.97;;;15.90;62.36
31775;BME280;66189;49.000;11.640;2023-05-22T00:25:03;95659.81;;;15.88;62.21
31775;BME280;66189;49.000;11.640;2023-05-22T00:27:04;95657.06;;;15.95;61.84
31775;BME280;66189;49.000;11.640;2023-05-22T00:29:05;95656.25;;;15.98;61.99
31775;BME280;66189;49.000;11.640;2023-05-22T00:31:06;95656.28;;;15.94;61.79
31775;BME280;66189;49.000;11.640;2023-05-22T00:33:07;95652.00;;;15.97;61.72
31775;BME280;66189;49.000;11.640;2023-05-22T00:35:08;95659.38;;;15.96;61.51
31775;BME280;66189;49.000;11.640;2023-05-22T00:37:09;95648.47;;;16.04;60.99
31775;BME280;66189;49.000;11.640;2023-05-22T00:39:10;95649.69;;;15.95;61.63
31775;BME280;66189;49.000;11.640;2023-05-22T00:41:10;95659.84;;;15.84;62.18
31775;BME280;66189;49.000;11.640;2023-05-22T00:43:11;95655.09;;;15.99;61.40
31775;BME280;66189;49.000;11.640;2023-05-22T00:45:13;95652.00;;;15.97;61.23
31775;BME280;66189;49.000;11.640;2023-05-22T00:47:14;95648.88;;;15.98;61.18
31775;BME280;66189;49.000;11.640;2023-05-22T00:49:14;95648.56;;;15.93;61.45
31775;BME280;66189;49.000;11.640;2023-05-22T00:51:15;95643.13;;;15.89;61.69
31775;BME280;66189;49.000;11.640;2023-05-22T00:53:19;95646.97;;;15.95;61.17
31775;BME280;66189;49.000;11.640;2023-05-22T00:55:20;95642.72;;;15.91;61.42
31775;BME280;66189;49.000;11.640;2023-05-22T00:57:21;95642.72;;;15.94;61.36
31775;BME280;66189;49.000;11.640;2023-05-22T00:59:22;95640.47;;;15.86;61.75
31775;BME280;66189;49.000;11.640;2023-05-22T01:01:23;95641.94;;;15.94;61.18
31775;BME280;66189;49.000;11.640;2023-05-22T01:03:25;95647.84;;;15.74;62.11
31775;BME280;66189;49.000;11.640;2023-05-22T01:05:29;95648.97;;;15.88;61.61
31775;BME280;66189;49.000;11.640;2023-05-22T01:07:30;95646.94;;;15.99;61.21
31775;BME280;66189;49.000;11.640;2023-05-22T01:09:31;95652.88;;;15.76;62.02
31775;BME280;66189;49.000;11.640;2023-05-22T01:11:57;95651.09;;;15.58;62.57
31775;BME280;66189;49.000;11.640;2023-05-22T01:16:30;95642.03;;;15.76;62.08
31775;BME280;66189;49.000;11.640;2023-05-22T01:25:22;95659.19;;;15.62;62.36
31775;BME280;66189;49.000;11.640;2023-05-22T01:32:09;95653.06;;;15.47;63.05
31775;BME280;66189;49.000;11.640;2023-05-22T01:34:13;95663.16;;;15.46;63.36
31775;BME280;66189;49.000;11.640;2023-05-22T01:36:17;95657.75;;;15.43;63.39
31775;BME280;66189;49.000;11.640;2023-05-22T01:38:19;95656.56;;;15.44;63.54
31775;BME280;66189;49.000;11.640;2023-05-22T01:40:20;95656.63;;;15.37;63.95
31775;BME280;66189;49.000;11.640;2023-05-22T01:42:21;95657.81;;;15.28;64.02
31775;BME280;66189;49.000;11.640;2023-05-22T01:44:22;95657.84;;;15.25;64.28
31775;BME280;66189;49.000;11.640;2023-05-22T01:46:29;95657.13;;;15.17;64.54
31775;BME280;66189;49.000;11.640;2023-05-22T01:48:30;95653.22;;;15.22;64.22
31775;BME280;66189;49.000;11.640;2023-05-22T01:50:30;95662.47;;;15.28;63.82
31775;BME280;66189;49.000;11.640;2023-05-22T01:55:14;95666.75;;;15.29;63.61
31775;BME280;66189;49.000;11.640;2023-05-22T01:57:26;95663.63;;;15.27;63.68
31775;BME280;66189;49.000;11.640;2023-05-22T01:59:44;95657.47;;;15.19;64.00
31775;BME280;66189;49.000;11.640;2023-05-22T02:01:49;95654.41;;;15.14;64.53
31775;BME280;66189;49.000;11.640;2023-05-22T02:03:54;95654.38;;;15.21;64.05
31775;BME280;66189;49.000;11.640;2023-05-22T02:06:00;95653.63;;;15.17;64.18
31775;BME280;66189;49.000;11.640;2023-05-22T02:08:02;95657.50;;;15.16;64.17
31775;BME280;66189;49.000;11.640;2023-05-22T02:10:04;95654.88;;;14.98;64.72
31775;BME280;66189;49.000;11.640;2023-05-22T02:12:06;95652.13;;;15.01;64.80
31775;BME280;66189;49.000;11.640;2023-05-22T02:14:07;95653.31;;;15.00;64.53
31775;BME280;66189;49.000;11.640;2023-05-22T02:16:11;95648.31;;;14.99;64.59
31775;BME280;66189;49.000;11.640;2023-05-22T02:18:11;95653.72;;;14.99;65.00
31775;BME280;66189;49.000;11.640;2023-05-22T02:20:14;95657.63;;;14.87;65.31
31775;BME280;66189;49.000;11.640;2023-05-22T02:22:17;95651.41;;;14.93;64.94
31775;BME280;66189;49.000;11.640;2023-05-22T02:24:17;95655.69;;;14.87;65.40
31775;BME280;66189;49.000;11.640;2023-05-22T02:26:18;95644.50;;;14.71;66.15
31775;BME280;66189;49.000;11.640;2023-05-22T02:28:21;95642.56;;;14.75;65.71
31775;BME280;66189;49.000;11.640;2023-05-22T02:30:21;95654.97;;;14.58;66.14
31775;BME280;66189;49.000;11.640;2023-05-22T02:32:24;95648.38;;;14.66;66.19
31775;BME280;66189;49.000;11.640;2023-05-22T02:34:25;95646.09;;;14.61;66.41
31775;BME280;66189;49.000;11.640;2023-05-22T02:36:26;95653.84;;;14.45;66.95
31775;BME280;66189;49.000;11.640;2023-05-22T02:38:27;95645.72;;;14.41;67.40
31775;BME280;66189;49.000;11.640;2023-05-22T02:40:27;95643.38;;;14.50;66.65
31775;BME280;66189;49.000;11.640;2023-05-22T02:42:27;95641.84;;;14.49;66.63
31775;BME280;66189;49.000;11.640;2023-05-22T02:44:28;95639.13;;;14.42;66.89
31775;BME280;66189;49.000;11.640;2023-05-22T02:46:28;95638.78;;;14.36;67.37
31775;BME280;66189;49.000;11.640;2023-05-22T02:48:29;95644.19;;;14.33;67.48
31775;BME280;66189;49.000;11.640;2023-05-22T02:50:30;95640.34;;;14.30;67.57
31775;BME280;66189;49.000;11.640;2023-05-22T02:52:30;95642.25;;;14.30;67.82
31775;BME280;66189;49.000;11.640;2023-05-22T02:54:30;95640.31;;;14.27;67.72
31775;BME280;66189;49.000;11.640;2023-05-22T02:56:31;95638.81;;;14.26;67.87
31775;BME280;66189;49.000;11.640;2023-05-22T02:58:31;95637.63;;;14.19;67.98
31775;BME280;66189;49.000;11.640;2023-05-22T03:00:32;95636.44;;;14.31;67.10
31775;BME280;66189;49.000;11.640;2023-05-22T03:02:33;95638.00;;;14.18;67.76
31775;BME280;66189;49.000;11.640;2023-05-22T03:04:35;95638.41;;;14.13;68.27
31775;BME280;66189;49.000;11.640;2023-05-22T03:06:37;95639.94;;;14.21;67.77
31775;BME280;66189;49.000;11.640;2023-05-22T03:08:40;95638.03;;;14.21;67.58
31775;BME280;66189;49.000;11.640;2023-05-22T03:10:42;95641.88;;;14.24;67.41
31775;BME280;66189;49.000;11.640;2023-05-22T03:12:43;95637.25;;;14.14;67.67
31775;BME280;66189;49.000;11.640;2023-05-22T03:14:46;95637.66;;;14.12;67.98
31775;BME280;66189;49.000;11.640;2023-05-22T03:16:46;95645.00;;;14.04;68.38
31775;BME280;66189;49.000;11.640;2023-05-22T03:18:49;95634.97;;;14.01;68.31
31775;BME280;66189;49.000;11.640;2023-05-22T03:20:50;95643.47;;;14.00;68.48
31775;BME280;66189;49.000;11.640;2023-05-22T03:22:51;95638.81;;;13.97;68.75
31775;BME280;66189;49.000;11.640;2023-05-22T03:24:51;95639.56;;;13.94;68.82
31775;BME280;66189;49.000;11.640;2023-05-22T03:26:52;95647.72;;;14.04;68.09
31775;BME280;66189;49.000;11.640;2023-05-22T03:29:00;95647.31;;;13.95;68.78
31775;BME280;66189;49.000;11.640;2023-05-22T03:31:02;95648.09;;;13.96;68.63
31775;BME280;66189;49.000;11.640;2023-05-22T03:33:10;95645.75;;;13.91;69.00
31775;BME280;66189;49.000;11.640;2023-05-22T03:35:11;95646.53;;;13.91;68.68
31775;BME280;66189;49.000;11.640;2023-05-22T03:37:14;95651.19;;;13.94;68.77
31775;BME280;66189;49.000;11.640;2023-05-22T03:39:15;95650.41;;;13.97;68.64
31775;BME280;66189;49.000;11.640;2023-05-22T03:41:23;95641.88;;;13.84;68.96
31775;BME280;66189;49.000;11.640;2023-05-22T03:43:24;95642.66;;;13.89;68.92
31775;BME280;66189;49.000;11.640;2023-05-22T03:45:25;95647.31;;;13.88;69.24
31775;BME280;66189;49.000;11.640;2023-05-22T03:47:25;95641.50;;;13.86;69.26
31775;BME280;66189;49.000;11.640;2023-05-22T03:49:26;95643.81;;;13.84;69.50
31775;BME280;66189;49.000;11.640;2023-05-22T03:51:26;95644.59;;;13.92;69.37
31775;BME280;66189;49.000;11.640;2023-05-22T03:53:28;95644.59;;;13.92;69.51
31775;BME280;66189;49.000;11.640;2023-05-22T03:55:28;95646.53;;;13.91;69.34
31775;BME280;66189;49.000;11.640;2023-05-22T03:57:30;95641.91;;;13.95;69.18
31775;BME280;66189;49.000;11.640;2023-05-22T03:59:30;95645.00;;;13.97;69.29
31775;BME280;66189;49.000;11.640;2023-05-22T04:01:30;95644.63;;;13.95;69.45
31775;BME280;66189;49.000;11.640;2023-05-22T04:03:31;95648.06;;;13.99;69.12
31775;BME280;66189;49.000;11.640;2023-05-22T04:05:31;95650.00;;;14.02;68.93
31775;BME280;66189;49.000;11.640;2023-05-22T04:07:32;95643.44;;;13.96;69.77
31775;BME280;66189;49.000;11.640;2023-05-22T04:09:34;95646.16;;;13.96;69.55
31775;BME280;66189;49.000;11.640;2023-05-22T04:11:34;95646.16;;;14.03;69.23
31775;BME280;66189;49.000;11.640;2023-05-22T04:13:36;95647.31;;;14.10;69.23
31775;BME280;66189;49.000;11.640;2023-05-22T04:15:36;95648.47;;;14.05;69.43
31775;BME280;66189;49.000;11.640;2023-05-22T04:17:38;95649.63;;;14.08;69.45
31775;BME280;66189;49.000;11.640;2023-05-22T04:19:39;95647.28;;;14.13;69.37
31775;BME280;66189;49.000;11.640;2023-05-22T04:21:40;95654.25;;;14.14;69.40
31775;BME280;66189;49.000;11.640;2023-05-22T04:23:40;95656.94;;;14.18;69.11
31775;BME280;66189;49.000;11.640;2023-05-22T04:25:42;95644.97;;;14.22;69.09
31775;BME280;66189;49.000;11.640;2023-05-22T04:27:43;95648.06;;;14.25;69.17
31775;BME280;66189;49.000;11.640;2023-05-22T04:29:44;95650.78;;;14.25;69.27
31775;BME280;66189;49.000;11.640;2023-05-22T04:31:44;95651.91;;;14.34;69.03
31775;BME280;66189;49.000;11.640;2023-05-22T04:33:45;95650.00;;;14.35;68.90
31775;BME280;66189;49.000;11.640;2023-05-22T04:35:47;95648.78;;;14.47;68.48
31775;BME280;66189;49.000;11.640;2023-05-22T04:37:47;95650.31;;;14.51;68.28
31775;BME280;66189;49.000;11.640;2023-05-22T04:39:48;95650.72;;;14.57;67.67
31775;BME280;66189;49.000;11.640;2023-05-22T04:41:52;95651.91;;;14.49;68.50
31775;BME280;66189;49.000;11.640;2023-05-22T04:43:52;95656.13;;;14.50;69.27
31775;BME280;66189;49.000;11.640;2023-05-22T04:45:53;95652.69;;;14.46;69.57
31775;BME280;66189;49.000;11.640;2023-05-22T04:47:53;95654.19;;;14.54;68.81
31775;BME280;66189;49.000;11.640;2023-05-22T04:49:54;95651.88;;;14.67;68.79
31775;BME280;66189;49.000;11.640;2023-05-22T04:51:56;95654.56;;;14.56;69.53
31775;BME280;66189;49.000;11.640;2023-05-22T04:53:57;95651.84;;;14.81;67.49
31775;BME280;66189;49.000;11.640;2023-05-22T04:55:58;95649.09;;;14.96;67.43
31775;BME280;66189;49.000;11.640;2023-05-22T04:57:59;95656.44;;;14.99;67.19
31775;BME280;66189;49.000;11.640;2023-05-22T05:00:00;95653.69;;;15.02;67.96
31775;BME280;66189;49.000;11.640;2023-05-22T05:02:00;95652.91;;;15.05;67.90
31775;BME280;66189;49.000;11.640;2023-05-22T05:04:01;95649.41;;;15.08;67.52
31775;BME280;66189;49.000;11.640;2023-05-22T05:06:02;95657.91;;;15.14;67.64
31775;BME280;66189;49.000;11.640;2023-05-22T05:08:03;95657.09;;;15.21;67.33
31775;BME280;66189;49.000;11.640;2023-05-22T05:10:04;95657.75;;;15.39;66.43
31775;BME280;66189;49.000;11.640;2023-05-22T05:12:05;95658.53;;;15.43;65.84
31775;BME280;66189;49.000;11.640;2023-05-22T05:14:06;95653.06;;;15.51;67.03
31775;BME280;66189;49.000;11.640;2023-05-22T05:16:07;95653.44;;;15.56;65.84
31775;BME280;66189;49.000;11.640;2023-05-22T05:18:07;95651.50;;;15.50;66.98
31775;BME280;66189;49.000;11.640;2023-05-22T05:20:08;95647.22;;;15.56;65.95
31775;BME280;66189;49.000;11.640;2023-05-22T05:22:08;95651.84;;;15.62;66.13
31775;BME280;66189;49.000;11.640;2023-05-22T05:24:09;95651.44;;;15.64;65.60
31775;BME280;66189;49.000;11.640;2023-05-22T05:26:13;95644.81;;;15.69;66.07
31775;BME280;66189;49.000;11.640;2023-05-22T05:28:13;95645.97;;;15.68;65.79
31775;BME280;66189;49.000;11.640;2023-05-22T05:30:15;95650.97;;;15.80;64.84
31775;BME280;66189;49.000;11.640;2023-05-22T05:32:40;95643.63;;;15.73;66.25
31775;BME280;66189;49.000;11.640;2023-05-22T05:35:10;95648.94;;;15.91;65.33
31775;BME280;66189;49.000;11.640;2023-05-22T05:37:18;95643.84;;;15.97;66.00
31775;BME280;66189;49.000;11.640;2023-05-22T05:39:19;95646.16;;;16.02;65.92
31775;BME280;66189;49.000;11.640;2023-05-22T05:41:20;95646.16;;;16.02;67.35
31775;BME280;66189;49.000;11.640;2023-05-22T05:43:28;95645.28;;;16.12;65.53
31775;BME280;66189;49.000;11.640;2023-05-22T05:45:33;95644.16;;;16.10;64.98
31775;BME280;66189;49.000;11.640;2023-05-22T05:47:35;95647.22;;;16.12;64.32
31775;BME280;66189;49.000;11.640;2023-05-22T05:49:35;95646.81;;;16.13;64.88
31775;BME280;66189;49.000;11.640;2023-05-22T05:51:37;95649.84;;;16.23;63.99
31775;BME280;66189;49.000;11.640;2023-05-22T05:53:38;95646.22;;;16.37;64.59
31775;BME280;66189;49.000;11.640;2023-05-22T05:55:41;95651.25;;;16.38;64.28
31775;BME280;66189;49.000;11.640;2023-05-22T05:57:43;95650.41;;;16.45;63.69
31775;BME280;66189;49.000;11.640;2023-05-22T05:59:48;95653.13;;;16.45;65.10
31775;BME280;66189;49.000;11.640;2023-05-22T06:02:09;95660.38;;;16.59;65.47
31775;BME280;66189;49.000;11.640;2023-05-22T06:04:09;95653.31;;;16.65;65.13
31775;BME280;66189;49.000;11.640;2023-05-22T06:06:11;95650.47;;;16.79;63.34
31775;BME280;66189;49.000;11.640;2023-05-22T06:08:35;95656.59;;;16.83;63.69
31775;BME280;66189;49.000;11.640;2023-05-22T06:10:36;95662.75;;;16.91;64.55
31775;BME280;66189;49.000;11.640;2023-05-22T06:12:49;95659.16;;;17.01;64.47
31775;BME280;66189;49.000;11.640;2023-05-22T06:14:50;95655.19;;;17.10;64.18
31775;BME280;66189;49.000;11.640;2023-05-22T06:16:50;95660.97;;;17.12;63.80
31775;BME280;66189;49.000;11.640;2023-05-22T06:18:51;95650.78;;;17.19;60.93
31775;BME280;66189;49.000;11.640;2023-05-22T06:20:52;95656.47;;;17.29;62.97
31775;BME280;66189;49.000;11.640;2023-05-22T06:22:52;95661.75;;;17.43;63.07
31775;BME280;66189;49.000;11.640;2023-05-22T06:24:53;95655.84;;;17.48;62.98
31775;BME280;66189;49.000;11.640;2023-05-22T06:26:55;95656.81;;;17.62;61.20
31775;BME280;66189;49.000;11.640;2023-05-22T06:28:56;95654.88;;;17.62;61.74
31775;BME280;66189;49.000;11.640;2023-05-22T06:30:58;95663.28;;;17.71;61.60
31775;BME280;66189;49.000;11.640;2023-05-22T06:33:01;95652.56;;;17.61;61.37
31775;BME280;66189;49.000;11.640;2023-05-22T06:35:03;95656.75;;;17.65;61.53
31775;BME280;66189;49.000;11.640;2023-05-22T06:37:04;95662.69;;;17.60;62.00
31775;BME280;66189;49.000;11.640;2023-05-22T06:39:10;95656.31;;;17.70;60.74
31775;BME280;66189;49.000;11.640;2023-05-22T06:41:34;95655.34;;;17.84;59.85
31775;BME280;66189;49.000;11.640;2023-05-22T06:43:36;95652.09;;;17.93;61.23
31775;BME280;66189;49.000;11.640;2023-05-22T06:45:46;95655.84;;;18.03;63.50
31775;BME280;66189;49.000;11.640;2023-05-22T06:48:10;95650.47;;;17.99;61.32
31775;BME280;66189;49.000;11.640;2023-05-22T06:50:20;95661.84;;;18.18;61.32
31775;BME280;66189;49.000;11.640;2023-05-22T06:52:21;95657.44;;;18.24;61.12
31775;BME280;66189;49.000;11.640;2023-05-22T06:54:22;95658.00;;;18.39;62.26
31775;BME280;66189;49.000;11.640;2023-05-22T06:56:28;95658.91;;;18.52;61.95
31775;BME280;66189;49.000;11.640;2023-05-22T06:58:36;95647.03;;;18.62;58.80
31775;BME280;66189;49.000;11.640;2023-05-22T07:00:38;95661.03;;;18.64;59.72
31775;BME280;66189;49.000;11.640;2023-05-22T07:02:53;95664.19;;;18.63;58.95
31775;BME280;66189;49.000;11.640;2023-05-22T07:05:00;95659.94;;;18.58;60.67
31775;BME280;66189;49.000;11.640;2023-05-22T07:07:16;95667.88;;;18.73;58.51
31775;BME280;66189;49.000;11.640;2023-05-22T07:09:18;95664.91;;;18.87;57.69
31775;BME280;66189;49.000;11.640;2023-05-22T07:11:19;95668.22;;;18.98;58.60
31775;BME280;66189;49.000;11.640;2023-05-22T07:13:20;95676.72;;;19.00;57.36
31775;BME280;66189;49.000;11.640;2023-05-22T07:15:21;95674.56;;;19.12;56.64
31775;BME280;66189;49.000;11.640;2023-05-22T07:17:25;95664.56;;;19.25;57.94
31775;BME280;66189;49.000;11.640;2023-05-22T07:19:27;95671.69;;;19.39;56.00
31775;BME280;66189;49.000;11.640;2023-05-22T07:21:30;95668.34;;;19.48;55.89
31775;BME280;66189;49.000;11.640;2023-05-22T07:23:31;95667.38;;;19.58;55.57
31775;BME280;66189;49.000;11.640;2023-05-22T07:25:33;95667.78;;;19.57;54.02
31775;BME280;66189;49.000;11.640;2023-05-22T07:27:34;95666.31;;;19.52;54.26
31775;BME280;66189;49.000;11.640;2023-05-22T07:29:36;95672.16;;;19.70;57.21
31775;BME280;66189;49.000;11.640;2023-05-22T07:31:38;95677.81;;;19.80;57.85
31775;BME280;66189;49.000;11.640;2023-05-22T07:33:39;95681.28;;;20.00;54.37
31775;BME280;66189;49.000;11.640;2023-05-22T07:35:40;95674.97;;;20.03;56.08
31775;BME280;66189;49.000;11.640;2023-05-22T07:37:40;95668.97;;;20.25;55.66
31775;BME280;66189;49.000;11.640;2023-05-22T07:39:41;95665.38;;;20.28;56.05
31775;BME280;66189;49.000;11.640;2023-05-22T07:41:46;95671.88;;;20.34;56.48
31775;BME280;66189;49.000;11.640;2023-05-22T07:43:49;95673.41;;;20.52;55.13
31775;BME280;66189;49.000;11.640;2023-05-22T07:45:54;95669.25;;;20.60;54.17
31775;BME280;66189;49.000;11.640;2023-05-22T07:47:58;95669.25;;;20.60;53.01
31775;BME280;66189;49.000;11.640;2023-05-22T07:50:01;95670.88;;;20.74;53.86
31775;BME280;66189;49.000;11.640;2023-05-22T07:52:04;95670.91;;;21.03;54.26
31775;BME280;66189;49.000;11.640;2023-05-22T07:54:04;95667.81;;;21.01;52.06
31775;BME280;66189;49.000;11.640;2023-05-22T07:56:07;95669.28;;;21.19;53.67
31775;BME280;66189;49.000;11.640;2023-05-22T07:58:08;95668.97;;;21.17;52.15
31775;BME280;66189;49.000;11.640;2023-05-22T08:00:13;95669.09;;;21.39;52.09
31775;BME280;66189;49.000;11.640;2023-05-22T08:02:14;95666.16;;;21.46;51.42
31775;BME280;66189;49.000;11.640;2023-05-22T08:04:15;95669.78;;;21.43;50.49
31775;BME280;66189;49.000;11.640;2023-05-22T08:06:15;95672.09;;;21.44;50.63
31775;BME280;66189;49.000;11.640;2023-05-22T08:08:17;95672.47;;;21.59;48.63
31775;BME280;66189;49.000;11.640;2023-05-22T08:10:18;95670.69;;;21.53;52.84
31775;BME280;66189;49.000;11.640;2023-05-22T08:12:18;95678.13;;;21.65;51.11
31775;BME280;66189;49.000;11.640;2023-05-22T08:14:20;95674.75;;;21.74;50.76
31775;BME280;66189;49.000;11.640;2023-05-22T08:16:21;95675.84;;;22.02;51.69
31775;BME280;66189;49.000;11.640;2023-05-22T08:18:22;95666.81;;;22.27;49.60
31775;BME280;66189;49.000;11.640;2023-05-22T08:20:22;95678.81;;;22.33;52.02
31775;BME280;66189;49.000;11.640;2023-05-22T08:22:23;95674.50;;;22.19;51.13
31775;BME280;66189;49.000;11.640;2023-05-22T08:24:24;95670.16;;;22.35;51.08
31775;BME280;66189;49.000;11.640;2023-05-22T08:26:28;95665.88;;;22.69;49.33
31775;BME280;66189;49.000;11.640;2023-05-22T08:28:28;95673.41;;;22.43;49.21
31775;BME280;66189;49.000;11.640;2023-05-22T08:30:29;95664.31;;;22.68;50.84
31775;BME280;66189;49.000;11.640;2023-05-22T08:32:30;95678.13;;;22.77;49.21
31775;BME280;66189;49.000;11.640;2023-05-22T08:34:30;95678.75;;;22.81;46.96
31775;BME280;66189;49.000;11.640;2023-05-22T08:36:32;95668.38;;;22.76;47.42
31775;BME280;66189;49.000;11.640;2023-05-22T08:38:35;95663.56;;;23.24;47.38
31775;BME280;66189;49.000;11.640;2023-05-22T08:40:37;95668.66;;;23.13;47.64
31775;BME280;66189;49.000;11.640;2023-05-22T08:42:38;95664.06;;;23.32;47.35
31775;BME280;66189;49.000;11.640;2023-05-22T08:44:39;95664.31;;;23.25;46.85
31775;BME280;66189;49.000;11.640;2023-05-22T08:46:39;95666.72;;;23.45;46.79
31775;BME280;66189;49.000;11.640;2023-05-22T08:48:44;95672.78;;;23.71;45.63
31775;BME280;66189;49.000;11.640;2023-05-22T08:50:46;95667.09;;;23.56;44.78
31775;BME280;66189;49.000;11.640;2023-05-22T08:52:51;95667.84;;;23.57;44.42
31775;BME280;66189;49.000;11.640;2023-05-22T08:54:53;95666.81;;;23.95;46.60
31775;BME280;66189;49.000;11.640;2023-05-22T08:56:55;95667.50;;;24.18;45.04
31775;BME280;66189;49.000;11.640;2023-05-22T08:58:56;95666.34;;;23.97;44.26
31775;BME280;66189;49.000;11.640;2023-05-22T09:00:57;95670.28;;;23.86;45.08
31775;BME280;66189;49.000;11.640;2023-05-22T09:02:58;95673.25;;;23.70;44.28
31775;BME280;66189;49.000;11.640;2023-05-22T09:04:59;95665.75;;;23.61;43.10
31775;BME280;66189;49.000;11.640;2023-05-22T09:07:01;95664.75;;;24.18;44.29
31775;BME280;66189;49.000;11.640;2023-05-22T09:09:04;95667.72;;;24.51;43.44
31775;BME280;66189;49.000;11.640;2023-05-22T09:11:05;95662.66;;;24.40;41.65
31775;BME280;66189;49.000;11.640;2023-05-22T09:13:06;95664.78;;;24.36;44.57
31775;BME280;66189;49.000;11.640;2023-05-22T09:15:09;95663.22;;;24.26;43.87
31775;BME280;66189;49.000;11.640;2023-05-22T09:17:13;95662.63;;;24.22;42.78
31775;BME280;66189;49.000;11.640;2023-05-22T09:19:14;95668.66;;;23.98;44.57
31775;BME280;66189;49.000;11.640;2023-05-22T09:21:15;95666.56;;;24.11;41.79
31775;BME280;66189;49.000;11.640;2023-05-22T09:23:15;95662.78;;;24.37;42.24
31775;BME280;66189;49.000;11.640;2023-05-22T09:25:21;95662.63;;;24.22;43.63
31775;BME280;66189;49.000;11.640;2023-05-22T09:27:22;95664.16;;;24.41;43.54
31775;BME280;66189;49.000;11.640;2023-05-22T09:29:22;95667.53;;;24.55;42.12
31775;BME280;66189;49.000;11.640;2023-05-22T09:31:23;95666.22;;;24.78;40.95
31775;BME280;66189;49.000;11.640;2023-05-22T09:33:23;95665.31;;;24.99;41.86
31775;BME280;66189;49.000;11.640;2023-05-22T09:35:25;95663.75;;;25.08;41.27
31775;BME280;66189;49.000;11.640;2023-05-22T09:37:27;95664.69;;;24.68;40.69
31775;BME280;66189;49.000;11.640;2023-05-22T09:39:37;95659.13;;;25.23;41.88
31775;BME280;66189;49.000;11.640;2023-05-22T09:41:39;95665.31;;;24.99;39.56
31775;BME280;66189;49.000;11.640;2023-05-22T09:43:48;95656.41;;;25.32;41.14
31775;BME280;66189;49.000;11.640;2023-05-22T09:45:55;95658.53;;;25.28;40.81
31775;BME280;66189;49.000;11.640;2023-05-22T09:47:56;95659.16;;;25.14;41.82
31775;BME280;66189;49.000;11.640;2023-05-22T09:49:57;95667.25;;;25.08;40.09
31775;BME280;66189;49.000;11.640;2023-05-22T09:51:58;95666.59;;;25.50;41.18
31775;BME280;66189;49.000;11.640;2023-05-22T09:54:02;95666.16;;;25.43;38.76
31775;BME280;66189;49.000;11.640;2023-05-22T09:56:05;95659.13;;;25.51;39.00
31775;BME280;66189;49.000;11.640;2023-05-22T09:58:12;95665.66;;;25.63;40.79
31775;BME280;66189;49.000;11.640;2023-05-22T10:00:14;95654.69;;;25.44;39.58
31775;BME280;66189;49.000;11.640;2023-05-22T10:02:21;95658.75;;;25.67;41.43
31775;BME280;66189;49.000;11.640;2023-05-22T10:04:22;95662.94;;;25.87;40.28
31775;BME280;66189;49.000;11.640;2023-05-22T10:06:23;95665.38;;;26.28;38.53
31775;BME280;66189;49.000;11.640;2023-05-22T10:08:34;95658.53;;;26.23;37.99
31775;BME280;66189;49.000;11.640;2023-05-22T10:10:36;95652.53;;;26.49;38.42
31775;BME280;66189;49.000;11.640;2023-05-22T10:12:43;95660.28;;;26.35;39.23
31775;BME280;66189;49.000;11.640;2023-05-22T10:14:47;95656.53;;;26.23;38.67
31775;BME280;66189;49.000;11.640;2023-05-22T10:16:47;95659.94;;;26.42;37.12
31775;BME280;66189;49.000;11.640;2023-05-22T10:18:48;95659.13;;;26.27;37.48
31775;BME280;66189;49.000;11.640;2023-05-22T10:20:49;95652.28;;;26.62;36.27
31775;BME280;66189;49.000;11.640;2023-05-22T10:22:53;95653.50;;;26.70;37.82
31775;BME280;66189;49.000;11.640;2023-05-22T10:24:53;95654.28;;;26.61;37.87
31775;BME280;66189;49.000;11.640;2023-05-22T10:26:54;95652.44;;;26.67;34.58
31775;BME280;66189;49.000;11.640;2023-05-22T10:29:21;95648.91;;;26.67;34.77
31775;BME280;66189;49.000;11.640;2023-05-22T10:31:37;95646.44;;;26.69;38.69
31775;BME280;66189;49.000;11.640;2023-05-22T10:34:03;95638.16;;;26.69;38.82
31775;BME280;66189;49.000;11.640;2023-05-22T10:36:08;95641.38;;;27.06;37.65
31775;BME280;66189;49.000;11.640;2023-05-22T10:40:48;95640.31;;;26.65;35.74
31775;BME280;66189;49.000;11.640;2023-05-22T10:42:49;95646.13;;;27.06;33.93
31775;BME280;66189;49.000;11.640;2023-05-22T10:44:51;95645.91;;;26.94;34.21
31775;BME280;66189;49.000;11.640;2023-05-22T10:46:52;95635.72;;;26.86;33.24
31775;BME280;66189;49.000;11.640;2023-05-22T10:48:53;95638.59;;;26.91;33.92
31775;BME280;66189;49.000;11.640;2023-05-22T10:50:54;95635.34;;;26.93;35.28
31775;BME280;66189;49.000;11.640;2023-05-22T10:55:21;95634.09;;;27.33;35.70
31775;BME280;66189;49.000;11.640;2023-05-22T10:57:23;95634.91;;;27.09;34.65
31775;BME280;66189;49.000;11.640;2023-05-22T10:59:32;95632.41;;;27.26;35.37
31775;BME280;66189;49.000;11.640;2023-05-22T11:01:33;95634.75;;;27.43;34.50
31775;BME280;66189;49.000;11.640;2023-05-22T11:03:51;95630.81;;;27.50;34.13